sensor_id;sensor_type;location;lat;lon;timestamp;temperature;humidity
69335;SHT31;56477;52.742;15.242;2023-12-28T00:01:40;2.74;91.42
69335;SHT31;56477;52.742;15.242;2023-12-28T00:04:06;2.64;91.47
69335;SHT31;56477;52.742;15.242;2023-12-28T00:06:32;2.70;91.43
69335;SHT31;56477;52.742;15.242;2023-12-28T00:09:01;2.67;91.38
69335;SHT31;56477;52.742;15.242;2023-12-28T00:11:27;2.64;91.51
69335;SHT31;56477;52.742;15.242;2023-12-28T00:13:53;2.67;91.55
69335;SHT31;56477;52.742;15.242;2023-12-28T00:16:19;2.65;91.61
69335;SHT31;56477;52.742;15.242;2023-12-28T00:18:45;2.67;91.46
69335;SHT31;56477;52.742;15.242;2023-12-28T00:21:11;2.63;91.76
69335;SHT31;56477;52.742;15.242;2023-12-28T00:23:37;2.63;91.74
69335;SHT31;56477;52.742;15.242;2023-12-28T00:26:03;2.63;91.75
69335;SHT31;56477;52.742;15.242;2023-12-28T00:28:29;2.65;91.83
69335;SHT31;56477;52.742;15.242;2023-12-28T00:30:55;2.60;92.22
69335;SHT31;56477;52.742;15.242;2023-12-28T00:33:21;2.63;92.03
69335;SHT31;56477;52.742;15.242;2023-12-28T00:35:47;2.67;91.95
69335;SHT31;56477;52.742;15.242;2023-12-28T00:38:13;2.60;92.28
69335;SHT31;56477;52.742;15.242;2023-12-28T00:40:38;2.63;92.10
69335;SHT31;56477;52.742;15.242;2023-12-28T00:43:07;2.63;92.30
69335;SHT31;56477;52.742;15.242;2023-12-28T00:45:33;2.61;92.32
69335;SHT31;56477;52.742;15.242;2023-12-28T00:47:59;2.61;92.22
69335;SHT31;56477;52.742;15.242;2023-12-28T00:50:25;2.63;92.40
69335;SHT31;56477;52.742;15.242;2023-12-28T00:52:53;2.65;92.28
69335;SHT31;56477;52.742;15.242;2023-12-28T00:55:19;2.67;92.21
69335;SHT31;56477;52.742;15.242;2023-12-28T00:57:45;2.65;92.18
69335;SHT31;56477;52.742;15.242;2023-12-28T01:00:11;2.65;92.39
69335;SHT31;56477;52.742;15.242;2023-12-28T01:02:37;2.71;92.22
69335;SHT31;56477;52.742;15.242;2023-12-28T01:05:03;2.63;92.37
69335;SHT31;56477;52.742;15.242;2023-12-28T01:07:29;2.58;92.82
69335;SHT31;56477;52.742;15.242;2023-12-28T01:09:55;2.60;92.81
69335;SHT31;56477;52.742;15.242;2023-12-28T01:12:21;2.60;92.81
69335;SHT31;56477;52.742;15.242;2023-12-28T01:14:47;2.60;92.81
69335;SHT31;56477;52.742;15.242;2023-12-28T01:17:13;2.57;92.80
69335;SHT31;56477;52.742;15.242;2023-12-28T01:19:39;2.63;92.79
69335;SHT31;56477;52.742;15.242;2023-12-28T01:22:05;2.60;92.82
69335;SHT31;56477;52.742;15.242;2023-12-28T01:24:31;2.63;92.87
69335;SHT31;56477;52.742;15.242;2023-12-28T01:26:57;2.63;92.84
69335;SHT31;56477;52.742;15.242;2023-12-28T01:29:23;2.65;92.70
69335;SHT31;56477;52.742;15.242;2023-12-28T01:31:49;2.65;92.81
69335;SHT31;56477;52.742;15.242;2023-12-28T01:34:14;2.70;92.77
69335;SHT31;56477;52.742;15.242;2023-12-28T01:36:41;2.74;92.75
69335;SHT31;56477;52.742;15.242;2023-12-28T01:39:09;2.74;92.67
69335;SHT31;56477;52.742;15.242;2023-12-28T01:41:37;2.79;92.51
69335;SHT31;56477;52.742;15.242;2023-12-28T01:44:03;2.77;92.53
69335;SHT31;56477;52.742;15.242;2023-12-28T01:46:29;2.74;92.66
69335;SHT31;56477;52.742;15.242;2023-12-28T01:48:55;2.73;92.70
69335;SHT31;56477;52.742;15.242;2023-12-28T01:51:23;2.71;92.83
69335;SHT31;56477;52.742;15.242;2023-12-28T01:53:50;2.67;92.82
69335;SHT31;56477;52.742;15.242;2023-12-28T01:56:18;2.67;93.04
69335;SHT31;56477;52.742;15.242;2023-12-28T01:58:44;2.68;93.09
69335;SHT31;56477;52.742;15.242;2023-12-28T02:01:12;2.67;93.14
69335;SHT31;56477;52.742;15.242;2023-12-28T02:03:38;2.76;92.93
69335;SHT31;56477;52.742;15.242;2023-12-28T02:06:06;2.76;92.76
69335;SHT31;56477;52.742;15.242;2023-12-28T02:08:32;2.84;92.53
69335;SHT31;56477;52.742;15.242;2023-12-28T02:10:59;2.94;92.35
69335;SHT31;56477;52.742;15.242;2023-12-28T02:13:25;3.09;91.88
69335;SHT31;56477;52.742;15.242;2023-12-28T02:16:09;3.08;91.71
69335;SHT31;56477;52.742;15.242;2023-12-28T02:18:44;3.15;91.65
69335;SHT31;56477;52.742;15.242;2023-12-28T02:21:13;3.22;91.52
69335;SHT31;56477;52.742;15.242;2023-12-28T02:23:39;3.33;91.07
69335;SHT31;56477;52.742;15.242;2023-12-28T02:26:05;3.33;90.94
69335;SHT31;56477;52.742;15.242;2023-12-28T02:28:31;3.28;91.02
69335;SHT31;56477;52.742;15.242;2023-12-28T02:30:59;3.26;91.03
69335;SHT31;56477;52.742;15.242;2023-12-28T02:33:33;3.31;90.91
69335;SHT31;56477;52.742;15.242;2023-12-28T02:36:04;3.43;90.66
69335;SHT31;56477;52.742;15.242;2023-12-28T02:38:36;3.56;90.22
69335;SHT31;56477;52.742;15.242;2023-12-28T02:41:03;3.64;89.70
69335;SHT31;56477;52.742;15.242;2023-12-28T02:43:29;3.64;89.79
69335;SHT31;56477;52.742;15.242;2023-12-28T02:45:55;3.67;89.64
69335;SHT31;56477;52.742;15.242;2023-12-28T02:48:21;3.69;89.50
69335;SHT31;56477;52.742;15.242;2023-12-28T02:50:47;3.71;89.30
69335;SHT31;56477;52.742;15.242;2023-12-28T02:53:13;3.63;89.49
69335;SHT31;56477;52.742;15.242;2023-12-28T02:55:39;3.55;89.83
69335;SHT31;56477;52.742;15.242;2023-12-28T02:58:05;3.53;89.95
69335;SHT31;56477;52.742;15.242;2023-12-28T03:00:31;3.59;89.69
69335;SHT31;56477;52.742;15.242;2023-12-28T03:02:57;3.64;89.47
69335;SHT31;56477;52.742;15.242;2023-12-28T03:05:23;3.70;89.18
69335;SHT31;56477;52.742;15.242;2023-12-28T03:07:49;3.70;89.20
69335;SHT31;56477;52.742;15.242;2023-12-28T03:10:15;3.74;89.12
69335;SHT31;56477;52.742;15.242;2023-12-28T03:12:41;3.67;88.90
69335;SHT31;56477;52.742;15.242;2023-12-28T03:15:07;3.71;88.98
69335;SHT31;56477;52.742;15.242;2023-12-28T03:17:34;3.63;89.11
69335;SHT31;56477;52.742;15.242;2023-12-28T03:20:00;3.66;89.05
69335;SHT31;56477;52.742;15.242;2023-12-28T03:22:27;3.71;89.12
69335;SHT31;56477;52.742;15.242;2023-12-28T03:24:52;3.86;88.51
69335;SHT31;56477;52.742;15.242;2023-12-28T03:27:19;3.90;88.39
69335;SHT31;56477;52.742;15.242;2023-12-28T03:29:44;3.95;88.25
69335;SHT31;56477;52.742;15.242;2023-12-28T03:32:10;4.02;88.00
69335;SHT31;56477;52.742;15.242;2023-12-28T03:34:36;4.10;87.48
69335;SHT31;56477;52.742;15.242;2023-12-28T03:37:03;4.17;87.39
69335;SHT31;56477;52.742;15.242;2023-12-28T03:39:28;4.28;86.88
69335;SHT31;56477;52.742;15.242;2023-12-28T03:41:55;4.44;86.32
69335;SHT31;56477;52.742;15.242;2023-12-28T03:44:21;4.56;85.72
69335;SHT31;56477;52.742;15.242;2023-12-28T03:46:50;4.63;85.21
69335;SHT31;56477;52.742;15.242;2023-12-28T03:49:19;4.75;84.78
69335;SHT31;56477;52.742;15.242;2023-12-28T03:51:47;4.80;84.57
69335;SHT31;56477;52.742;15.242;2023-12-28T03:54:17;4.79;84.44
69335;SHT31;56477;52.742;15.242;2023-12-28T03:56:45;4.79;84.64
69335;SHT31;56477;52.742;15.242;2023-12-28T03:59:12;4.83;84.47
69335;SHT31;56477;52.742;15.242;2023-12-28T04:01:38;4.73;84.75
69335;SHT31;56477;52.742;15.242;2023-12-28T04:04:04;4.69;84.99
69335;SHT31;56477;52.742;15.242;2023-12-28T04:06:30;4.66;85.19
69335;SHT31;56477;52.742;15.242;2023-12-28T04:08:56;4.60;85.27
69335;SHT31;56477;52.742;15.242;2023-12-28T04:11:22;4.58;85.38
69335;SHT31;56477;52.742;15.242;2023-12-28T04:13:48;4.58;85.43
69335;SHT31;56477;52.742;15.242;2023-12-28T04:16:14;4.56;85.39
69335;SHT31;56477;52.742;15.242;2023-12-28T04:18:41;4.68;85.07
69335;SHT31;56477;52.742;15.242;2023-12-28T04:21:11;4.73;84.76
69335;SHT31;56477;52.742;15.242;2023-12-28T04:23:38;4.75;84.78
69335;SHT31;56477;52.742;15.242;2023-12-28T04:26:05;4.77;84.61
69335;SHT31;56477;52.742;15.242;2023-12-28T04:28:31;4.79;84.51
69335;SHT31;56477;52.742;15.242;2023-12-28T04:30:57;4.80;84.47
69335;SHT31;56477;52.742;15.242;2023-12-28T04:33:23;4.84;84.47
69335;SHT31;56477;52.742;15.242;2023-12-28T04:35:49;4.81;84.56
69335;SHT31;56477;52.742;15.242;2023-12-28T04:38:14;4.84;84.41
69335;SHT31;56477;52.742;15.242;2023-12-28T04:40:40;4.89;84.29
69335;SHT31;56477;52.742;15.242;2023-12-28T04:43:07;4.94;84.16
69335;SHT31;56477;52.742;15.242;2023-12-28T04:45:33;5.01;84.20
69335;SHT31;56477;52.742;15.242;2023-12-28T04:47:59;5.10;83.71
69335;SHT31;56477;52.742;15.242;2023-12-28T04:50:25;5.20;83.17
69335;SHT31;56477;52.742;15.242;2023-12-28T04:52:51;5.31;83.06
69335;SHT31;56477;52.742;15.242;2023-12-28T04:55:17;5.44;82.32
69335;SHT31;56477;52.742;15.242;2023-12-28T04:57:42;5.54;82.24
69335;SHT31;56477;52.742;15.242;2023-12-28T05:00:09;5.55;82.13
69335;SHT31;56477;52.742;15.242;2023-12-28T05:02:35;5.54;82.84
69335;SHT31;56477;52.742;15.242;2023-12-28T05:05:01;5.52;83.89
69335;SHT31;56477;52.742;15.242;2023-12-28T05:07:26;5.45;84.40
69335;SHT31;56477;52.742;15.242;2023-12-28T05:09:53;5.41;85.07
69335;SHT31;56477;52.742;15.242;2023-12-28T05:12:19;5.30;86.15
69335;SHT31;56477;52.742;15.242;2023-12-28T05:14:45;5.18;86.98
69335;SHT31;56477;52.742;15.242;2023-12-28T05:17:11;5.13;88.09
69335;SHT31;56477;52.742;15.242;2023-12-28T05:19:37;5.06;88.73
69335;SHT31;56477;52.742;15.242;2023-12-28T05:22:03;4.94;89.33
69335;SHT31;56477;52.742;15.242;2023-12-28T05:24:32;5.06;89.10
69335;SHT31;56477;52.742;15.242;2023-12-28T05:26:58;5.01;89.46
69335;SHT31;56477;52.742;15.242;2023-12-28T05:29:24;4.97;89.26
69335;SHT31;56477;52.742;15.242;2023-12-28T05:31:50;4.97;89.29
69335;SHT31;56477;52.742;15.242;2023-12-28T05:34:16;4.96;89.61
69335;SHT31;56477;52.742;15.242;2023-12-28T05:36:42;4.96;89.40
69335;SHT31;56477;52.742;15.242;2023-12-28T05:39:11;4.96;89.04
69335;SHT31;56477;52.742;15.242;2023-12-28T05:41:39;4.99;89.18
69335;SHT31;56477;52.742;15.242;2023-12-28T05:44:06;4.91;89.24
69335;SHT31;56477;52.742;15.242;2023-12-28T05:46:32;4.99;89.32
69335;SHT31;56477;52.742;15.242;2023-12-28T05:48:58;5.06;89.35
69335;SHT31;56477;52.742;15.242;2023-12-28T05:51:24;5.04;89.61
69335;SHT31;56477;52.742;15.242;2023-12-28T05:53:50;5.07;89.58
69335;SHT31;56477;52.742;15.242;2023-12-28T05:56:16;5.08;89.70
69335;SHT31;56477;52.742;15.242;2023-12-28T05:58:43;5.08;89.70
69335;SHT31;56477;52.742;15.242;2023-12-28T06:01:09;5.07;89.87
69335;SHT31;56477;52.742;15.242;2023-12-28T06:03:35;5.06;90.02
69335;SHT31;56477;52.742;15.242;2023-12-28T06:06:00;5.06;90.27
69335;SHT31;56477;52.742;15.242;2023-12-28T06:08:27;5.01;90.46
69335;SHT31;56477;52.742;15.242;2023-12-28T06:10:52;5.01;90.68
69335;SHT31;56477;52.742;15.242;2023-12-28T06:13:18;5.00;90.83
69335;SHT31;56477;52.742;15.242;2023-12-28T06:15:44;5.06;91.01
69335;SHT31;56477;52.742;15.242;2023-12-28T06:18:10;5.03;91.05
69335;SHT31;56477;52.742;15.242;2023-12-28T06:20:36;5.04;91.21
69335;SHT31;56477;52.742;15.242;2023-12-28T06:23:03;5.04;91.54
69335;SHT31;56477;52.742;15.242;2023-12-28T06:25:28;5.08;91.56
69335;SHT31;56477;52.742;15.242;2023-12-28T06:27:54;5.07;91.66
69335;SHT31;56477;52.742;15.242;2023-12-28T06:30:20;5.10;91.83
69335;SHT31;56477;52.742;15.242;2023-12-28T06:32:46;5.17;91.65
69335;SHT31;56477;52.742;15.242;2023-12-28T06:35:12;5.17;91.77
69335;SHT31;56477;52.742;15.242;2023-12-28T06:37:38;5.13;91.88
69335;SHT31;56477;52.742;15.242;2023-12-28T06:40:04;5.18;91.86
69335;SHT31;56477;52.742;15.242;2023-12-28T06:42:31;5.24;91.95
69335;SHT31;56477;52.742;15.242;2023-12-28T06:44:56;5.24;92.04
69335;SHT31;56477;52.742;15.242;2023-12-28T06:47:23;5.16;92.30
69335;SHT31;56477;52.742;15.242;2023-12-28T06:49:48;5.16;92.30
69335;SHT31;56477;52.742;15.242;2023-12-28T06:52:14;5.17;92.37
69335;SHT31;56477;52.742;15.242;2023-12-28T06:54:40;5.28;91.99
69335;SHT31;56477;52.742;15.242;2023-12-28T06:57:06;5.31;91.80
69335;SHT31;56477;52.742;15.242;2023-12-28T06:59:32;5.41;91.20
69335;SHT31;56477;52.742;15.242;2023-12-28T07:01:58;5.55;90.70
69335;SHT31;56477;52.742;15.242;2023-12-28T07:04:24;5.58;90.30
69335;SHT31;56477;52.742;15.242;2023-12-28T07:06:52;5.63;89.79
69335;SHT31;56477;52.742;15.242;2023-12-28T07:09:18;5.66;89.59
69335;SHT31;56477;52.742;15.242;2023-12-28T07:11:44;5.70;89.54
69335;SHT31;56477;52.742;15.242;2023-12-28T07:14:10;5.79;89.24
69335;SHT31;56477;52.742;15.242;2023-12-28T07:16:36;5.83;89.05
69335;SHT31;56477;52.742;15.242;2023-12-28T07:19:02;5.89;88.87
69335;SHT31;56477;52.742;15.242;2023-12-28T07:21:29;5.85;88.90
69335;SHT31;56477;52.742;15.242;2023-12-28T07:23:55;5.85;88.99
69335;SHT31;56477;52.742;15.242;2023-12-28T07:26:21;5.80;89.21
69335;SHT31;56477;52.742;15.242;2023-12-28T07:28:47;5.78;89.31
69335;SHT31;56477;52.742;15.242;2023-12-28T07:31:27;5.83;89.20
69335;SHT31;56477;52.742;15.242;2023-12-28T07:33:53;5.82;89.11
69335;SHT31;56477;52.742;15.242;2023-12-28T07:36:20;5.80;89.24
69335;SHT31;56477;52.742;15.242;2023-12-28T07:38:46;5.80;89.28
69335;SHT31;56477;52.742;15.242;2023-12-28T07:41:12;5.76;89.42
69335;SHT31;56477;52.742;15.242;2023-12-28T07:43:38;5.72;89.53
69335;SHT31;56477;52.742;15.242;2023-12-28T07:46:04;5.72;89.47
69335;SHT31;56477;52.742;15.242;2023-12-28T07:48:30;5.79;89.29
69335;SHT31;56477;52.742;15.242;2023-12-28T07:50:57;5.83;89.08
69335;SHT31;56477;52.742;15.242;2023-12-28T07:53:23;5.87;88.90
69335;SHT31;56477;52.742;15.242;2023-12-28T07:55:49;5.93;88.84
69335;SHT31;56477;52.742;15.242;2023-12-28T07:58:15;5.93;88.70
69335;SHT31;56477;52.742;15.242;2023-12-28T08:00:41;5.99;88.73
69335;SHT31;56477;52.742;15.242;2023-12-28T08:03:07;5.99;88.77
69335;SHT31;56477;52.742;15.242;2023-12-28T08:05:33;6.02;88.53
69335;SHT31;56477;52.742;15.242;2023-12-28T08:07:59;6.06;88.28
69335;SHT31;56477;52.742;15.242;2023-12-28T08:10:25;6.17;87.95
69335;SHT31;56477;52.742;15.242;2023-12-28T08:12:51;6.18;87.87
69335;SHT31;56477;52.742;15.242;2023-12-28T08:15:17;6.23;87.85
69335;SHT31;56477;52.742;15.242;2023-12-28T08:17:43;6.30;87.61
69335;SHT31;56477;52.742;15.242;2023-12-28T08:20:09;6.37;87.26
69335;SHT31;56477;52.742;15.242;2023-12-28T08:22:34;6.38;87.20
69335;SHT31;56477;52.742;15.242;2023-12-28T08:25:01;6.41;87.08
69335;SHT31;56477;52.742;15.242;2023-12-28T08:27:26;6.45;87.15
69335;SHT31;56477;52.742;15.242;2023-12-28T08:29:53;6.41;87.27
69335;SHT31;56477;52.742;15.242;2023-12-28T08:32:18;6.40;87.36
69335;SHT31;56477;52.742;15.242;2023-12-28T08:34:44;6.35;87.53
69335;SHT31;56477;52.742;15.242;2023-12-28T08:37:11;6.40;87.51
69335;SHT31;56477;52.742;15.242;2023-12-28T08:39:39;6.44;87.60
69335;SHT31;56477;52.742;15.242;2023-12-28T08:42:05;6.44;87.30
69335;SHT31;56477;52.742;15.242;2023-12-28T08:44:31;6.42;87.27
69335;SHT31;56477;52.742;15.242;2023-12-28T08:46:58;6.49;86.88
69335;SHT31;56477;52.742;15.242;2023-12-28T08:49:24;6.55;86.81
69335;SHT31;56477;52.742;15.242;2023-12-28T08:51:51;6.52;86.83
69335;SHT31;56477;52.742;15.242;2023-12-28T08:54:17;6.47;86.87
69335;SHT31;56477;52.742;15.242;2023-12-28T08:56:43;6.61;86.33
69335;SHT31;56477;52.742;15.242;2023-12-28T08:59:09;6.63;86.35
69335;SHT31;56477;52.742;15.242;2023-12-28T09:01:35;6.64;86.37
69335;SHT31;56477;52.742;15.242;2023-12-28T09:04:01;6.71;86.13
69335;SHT31;56477;52.742;15.242;2023-12-28T09:06:27;6.79;85.56
69335;SHT31;56477;52.742;15.242;2023-12-28T09:08:53;6.79;85.81
69335;SHT31;56477;52.742;15.242;2023-12-28T09:11:19;6.81;85.79
69335;SHT31;56477;52.742;15.242;2023-12-28T09:13:46;6.95;85.32
69335;SHT31;56477;52.742;15.242;2023-12-28T09:16:13;7.05;85.13
69335;SHT31;56477;52.742;15.242;2023-12-28T09:18:39;7.23;84.24
69335;SHT31;56477;52.742;15.242;2023-12-28T09:21:07;7.26;84.31
69335;SHT31;56477;52.742;15.242;2023-12-28T09:23:34;7.33;84.34
69335;SHT31;56477;52.742;15.242;2023-12-28T09:26:01;7.42;83.83
69335;SHT31;56477;52.742;15.242;2023-12-28T09:28:27;7.46;83.89
69335;SHT31;56477;52.742;15.242;2023-12-28T09:30:52;7.47;83.93
69335;SHT31;56477;52.742;15.242;2023-12-28T09:33:19;7.38;84.35
69335;SHT31;56477;52.742;15.242;2023-12-28T09:35:44;7.34;84.49
69335;SHT31;56477;52.742;15.242;2023-12-28T09:38:11;7.37;84.37
69335;SHT31;56477;52.742;15.242;2023-12-28T09:40:36;7.31;84.82
69335;SHT31;56477;52.742;15.242;2023-12-28T09:43:24;7.28;84.75
69335;SHT31;56477;52.742;15.242;2023-12-28T09:45:51;7.23;84.88
69335;SHT31;56477;52.742;15.242;2023-12-28T09:48:19;7.20;85.10
69335;SHT31;56477;52.742;15.242;2023-12-28T09:50:48;7.16;85.57
69335;SHT31;56477;52.742;15.242;2023-12-28T09:53:14;7.12;85.74
69335;SHT31;56477;52.742;15.242;2023-12-28T09:55:40;7.12;86.01
69335;SHT31;56477;52.742;15.242;2023-12-28T09:58:07;7.14;85.83
69335;SHT31;56477;52.742;15.242;2023-12-28T10:00:39;7.22;85.73
69335;SHT31;56477;52.742;15.242;2023-12-28T10:03:05;7.24;85.88
69335;SHT31;56477;52.742;15.242;2023-12-28T10:05:31;7.22;85.98
69335;SHT31;56477;52.742;15.242;2023-12-28T10:07:58;7.28;85.96
69335;SHT31;56477;52.742;15.242;2023-12-28T10:10:23;7.30;86.18
69335;SHT31;56477;52.742;15.242;2023-12-28T10:12:50;7.36;86.07
69335;SHT31;56477;52.742;15.242;2023-12-28T10:15:17;7.36;86.16
69335;SHT31;56477;52.742;15.242;2023-12-28T10:17:43;7.42;86.20
69335;SHT31;56477;52.742;15.242;2023-12-28T10:20:09;7.40;86.32
69335;SHT31;56477;52.742;15.242;2023-12-28T10:22:38;7.44;86.59
69335;SHT31;56477;52.742;15.242;2023-12-28T10:25:04;7.44;86.50
69335;SHT31;56477;52.742;15.242;2023-12-28T10:27:30;7.50;86.46
69335;SHT31;56477;52.742;15.242;2023-12-28T10:29:56;7.57;86.34
69335;SHT31;56477;52.742;15.242;2023-12-28T10:32:23;7.61;86.19
69335;SHT31;56477;52.742;15.242;2023-12-28T10:34:53;7.55;86.54
69335;SHT31;56477;52.742;15.242;2023-12-28T10:37:21;7.54;86.70
69335;SHT31;56477;52.742;15.242;2023-12-28T10:39:49;7.61;86.54
69335;SHT31;56477;52.742;15.242;2023-12-28T10:42:30;7.71;86.31
69335;SHT31;56477;52.742;15.242;2023-12-28T10:45:02;7.86;85.64
69335;SHT31;56477;52.742;15.242;2023-12-28T10:47:37;7.91;85.62
69335;SHT31;56477;52.742;15.242;2023-12-28T10:50:04;7.96;85.42
69335;SHT31;56477;52.742;15.242;2023-12-28T10:52:32;7.88;85.63
69335;SHT31;56477;52.742;15.242;2023-12-28T10:55:06;7.99;85.22
69335;SHT31;56477;52.742;15.242;2023-12-28T10:57:59;8.14;84.90
69335;SHT31;56477;52.742;15.242;2023-12-28T11:00:32;8.19;84.37
69335;SHT31;56477;52.742;15.242;2023-12-28T11:03:03;8.26;84.34
69335;SHT31;56477;52.742;15.242;2023-12-28T11:05:29;8.40;84.37
69335;SHT31;56477;52.742;15.242;2023-12-28T11:07:57;8.50;83.76
69335;SHT31;56477;52.742;15.242;2023-12-28T11:10:24;8.61;83.18
69335;SHT31;56477;52.742;15.242;2023-12-28T11:12:54;8.71;83.07
69335;SHT31;56477;52.742;15.242;2023-12-28T11:15:19;8.80;82.85
69335;SHT31;56477;52.742;15.242;2023-12-28T11:17:46;8.84;82.73
69335;SHT31;56477;52.742;15.242;2023-12-28T11:20:13;8.98;82.24
69335;SHT31;56477;52.742;15.242;2023-12-28T11:22:40;9.43;81.48
69335;SHT31;56477;52.742;15.242;2023-12-28T11:25:14;9.74;79.98
69335;SHT31;56477;52.742;15.242;2023-12-28T11:27:40;9.77;79.60
69335;SHT31;56477;52.742;15.242;2023-12-28T11:30:10;9.80;79.47
69335;SHT31;56477;52.742;15.242;2023-12-28T11:32:36;10.04;79.36
69335;SHT31;56477;52.742;15.242;2023-12-28T11:35:06;10.42;78.17
69335;SHT31;56477;52.742;15.242;2023-12-28T11:37:36;10.32;78.22
69335;SHT31;56477;52.742;15.242;2023-12-28T11:40:16;10.44;78.51
69335;SHT31;56477;52.742;15.242;2023-12-28T11:42:53;10.25;78.80
69335;SHT31;56477;52.742;15.242;2023-12-28T11:45:20;10.19;79.12
69335;SHT31;56477;52.742;15.242;2023-12-28T11:47:47;10.01;79.69
69335;SHT31;56477;52.742;15.242;2023-12-28T11:50:23;10.09;79.86
69335;SHT31;56477;52.742;15.242;2023-12-28T11:52:49;9.87;80.26
69335;SHT31;56477;52.742;15.242;2023-12-28T11:55:22;9.88;80.23
69335;SHT31;56477;52.742;15.242;2023-12-28T11:57:49;10.01;80.18
69335;SHT31;56477;52.742;15.242;2023-12-28T12:00:15;10.11;80.01
69335;SHT31;56477;52.742;15.242;2023-12-28T12:02:44;10.32;79.58
69335;SHT31;56477;52.742;15.242;2023-12-28T12:05:11;10.42;79.54
69335;SHT31;56477;52.742;15.242;2023-12-28T12:07:37;10.41;79.09
69335;SHT31;56477;52.742;15.242;2023-12-28T12:10:03;10.04;80.38
69335;SHT31;56477;52.742;15.242;2023-12-28T12:12:30;10.19;79.88
69335;SHT31;56477;52.742;15.242;2023-12-28T12:14:56;10.15;80.25
69335;SHT31;56477;52.742;15.242;2023-12-28T12:17:23;10.14;79.71
69335;SHT31;56477;52.742;15.242;2023-12-28T12:19:48;10.11;80.15
69335;SHT31;56477;52.742;15.242;2023-12-28T12:22:17;10.01;80.64
69335;SHT31;56477;52.742;15.242;2023-12-28T12:24:47;10.02;80.05
69335;SHT31;56477;52.742;15.242;2023-12-28T12:27:14;10.01;80.59
69335;SHT31;56477;52.742;15.242;2023-12-28T12:29:40;10.14;80.27
69335;SHT31;56477;52.742;15.242;2023-12-28T12:32:06;10.14;79.80
69335;SHT31;56477;52.742;15.242;2023-12-28T12:34:33;10.15;79.72
69335;SHT31;56477;52.742;15.242;2023-12-28T12:36:59;10.11;80.01
69335;SHT31;56477;52.742;15.242;2023-12-28T12:39:26;9.97;80.49
69335;SHT31;56477;52.742;15.242;2023-12-28T12:41:52;10.02;80.18
69335;SHT31;56477;52.742;15.242;2023-12-28T12:44:21;9.97;80.08
69335;SHT31;56477;52.742;15.242;2023-12-28T12:46:48;9.95;80.56
69335;SHT31;56477;52.742;15.242;2023-12-28T12:49:15;10.08;80.45
69335;SHT31;56477;52.742;15.242;2023-12-28T12:51:42;10.08;80.24
69335;SHT31;56477;52.742;15.242;2023-12-28T12:54:07;10.08;80.23
69335;SHT31;56477;52.742;15.242;2023-12-28T12:56:35;10.08;80.27
69335;SHT31;56477;52.742;15.242;2023-12-28T12:59:00;9.98;80.54
69335;SHT31;56477;52.742;15.242;2023-12-28T13:01:27;10.04;80.70
69335;SHT31;56477;52.742;15.242;2023-12-28T13:03:53;10.02;80.61
69335;SHT31;56477;52.742;15.242;2023-12-28T13:06:20;10.05;80.53
69335;SHT31;56477;52.742;15.242;2023-12-28T13:08:54;10.07;80.57
69335;SHT31;56477;52.742;15.242;2023-12-28T13:11:21;10.17;80.43
69335;SHT31;56477;52.742;15.242;2023-12-28T13:13:52;10.11;80.31
69335;SHT31;56477;52.742;15.242;2023-12-28T13:16:18;10.18;80.46
69335;SHT31;56477;52.742;15.242;2023-12-28T13:18:44;10.14;80.32
69335;SHT31;56477;52.742;15.242;2023-12-28T13:21:10;10.17;80.24
69335;SHT31;56477;52.742;15.242;2023-12-28T13:23:36;10.08;80.31
69335;SHT31;56477;52.742;15.242;2023-12-28T13:26:02;10.19;80.11
69335;SHT31;56477;52.742;15.242;2023-12-28T13:28:28;10.17;79.94
69335;SHT31;56477;52.742;15.242;2023-12-28T13:30:54;10.15;79.61
69335;SHT31;56477;52.742;15.242;2023-12-28T13:33:21;10.25;79.58
69335;SHT31;56477;52.742;15.242;2023-12-28T13:35:48;10.24;79.55
69335;SHT31;56477;52.742;15.242;2023-12-28T13:38:13;10.18;79.63
69335;SHT31;56477;52.742;15.242;2023-12-28T13:40:39;10.15;79.70
69335;SHT31;56477;52.742;15.242;2023-12-28T13:43:05;10.09;79.80
69335;SHT31;56477;52.742;15.242;2023-12-28T13:45:32;10.07;80.03
69335;SHT31;56477;52.742;15.242;2023-12-28T13:47:58;10.08;79.85
69335;SHT31;56477;52.742;15.242;2023-12-28T13:50:24;10.11;79.69
69335;SHT31;56477;52.742;15.242;2023-12-28T13:52:49;10.11;79.78
69335;SHT31;56477;52.742;15.242;2023-12-28T13:55:15;10.04;79.83
69335;SHT31;56477;52.742;15.242;2023-12-28T13:57:41;10.02;79.93
69335;SHT31;56477;52.742;15.242;2023-12-28T14:00:08;10.02;79.76
69335;SHT31;56477;52.742;15.242;2023-12-28T14:02:34;9.91;80.00
69335;SHT31;56477;52.742;15.242;2023-12-28T14:05:00;9.91;80.10
69335;SHT31;56477;52.742;15.242;2023-12-28T14:07:26;9.83;80.11
69335;SHT31;56477;52.742;15.242;2023-12-28T14:09:52;9.80;80.34
69335;SHT31;56477;52.742;15.242;2023-12-28T14:12:18;9.73;80.73
69335;SHT31;56477;52.742;15.242;2023-12-28T14:14:44;9.70;80.68
69335;SHT31;56477;52.742;15.242;2023-12-28T14:17:10;9.67;80.63
69335;SHT31;56477;52.742;15.242;2023-12-28T14:19:36;9.63;80.66
69335;SHT31;56477;52.742;15.242;2023-12-28T14:22:02;9.54;81.09
69335;SHT31;56477;52.742;15.242;2023-12-28T14:24:29;9.43;81.29
69335;SHT31;56477;52.742;15.242;2023-12-28T14:26:56;9.28;81.64
69335;SHT31;56477;52.742;15.242;2023-12-28T14:29:22;9.22;81.87
69335;SHT31;56477;52.742;15.242;2023-12-28T14:31:49;9.12;82.15
69335;SHT31;56477;52.742;15.242;2023-12-28T14:34:15;9.11;82.29
69335;SHT31;56477;52.742;15.242;2023-12-28T14:36:44;9.05;82.40
69335;SHT31;56477;52.742;15.242;2023-12-28T14:39:15;8.94;82.63
69335;SHT31;56477;52.742;15.242;2023-12-28T14:41:44;8.89;82.81
69335;SHT31;56477;52.742;15.242;2023-12-28T14:44:10;8.81;83.12
69335;SHT31;56477;52.742;15.242;2023-12-28T14:46:36;8.74;83.27
69335;SHT31;56477;52.742;15.242;2023-12-28T14:49:02;8.70;83.56
69335;SHT31;56477;52.742;15.242;2023-12-28T14:51:29;8.59;83.84
69335;SHT31;56477;52.742;15.242;2023-12-28T14:53:55;8.54;84.02
69335;SHT31;56477;52.742;15.242;2023-12-28T14:56:21;8.49;84.04
69335;SHT31;56477;52.742;15.242;2023-12-28T14:58:47;8.44;84.27
69335;SHT31;56477;52.742;15.242;2023-12-28T15:01:14;8.40;84.32
69335;SHT31;56477;52.742;15.242;2023-12-28T15:03:41;8.39;84.46
69335;SHT31;56477;52.742;15.242;2023-12-28T15:06:07;8.36;84.46
69335;SHT31;56477;52.742;15.242;2023-12-28T15:08:33;8.33;84.69
69335;SHT31;56477;52.742;15.242;2023-12-28T15:11:00;8.29;84.87
69335;SHT31;56477;52.742;15.242;2023-12-28T15:13:26;8.16;85.23
69335;SHT31;56477;52.742;15.242;2023-12-28T15:15:52;8.13;85.44
69335;SHT31;56477;52.742;15.242;2023-12-28T15:18:19;8.06;85.59
69335;SHT31;56477;52.742;15.242;2023-12-28T15:20:46;8.02;85.78
69335;SHT31;56477;52.742;15.242;2023-12-28T15:23:13;7.96;86.11
69335;SHT31;56477;52.742;15.242;2023-12-28T15:25:40;7.93;86.22